Terminal Aerodrome Forecast
Issued by NWS Wilmington, OH

Current Version | Previous Version | Graphics & Text | Print | Product List | Glossary On
Versions: 1 2 3 4 5 6 7 8 9 10 11 12 13 14 15 16 17 18 19 20 21 22 23 24
000
FTUS41 KILN 291128
TAFILN
TAF
KILN 291128Z 2912/3012 34005KT P6SM SCT140
     FM291400 04006KT P6SM SCT040
     FM291800 06008KT P6SM VCTS BKN040CB
     FM300000 VRB03KT P6SM SCT080
     FM300900 00000KT 4SM BR SCT080=

USA.gov is the U.S. government's official web portal to all federal, state and local government web resources and services.